createdAt,value
2023-02-06T00:00:50.202Z,40.13
2023-02-06T00:03:18.029Z,41.72
2023-02-06T00:06:00.059Z,49.03
2023-02-06T00:08:27.939Z,42.38
2023-02-06T00:10:55.958Z,32.80
2023-02-06T00:13:23.276Z,39.55
2023-02-06T00:15:50.570Z,34.72
2023-02-06T00:18:17.943Z,32.90
2023-02-06T00:20:45.149Z,28.40
2023-02-06T00:23:12.469Z,43.53
2023-02-06T00:25:39.804Z,37.53
2023-02-06T00:28:07.095Z,42.42
2023-02-06T00:30:34.413Z,33.33
2023-02-06T00:33:01.691Z,42.58
2023-02-06T00:35:29.074Z,34.35
2023-02-06T00:37:56.691Z,37.38
2023-02-06T00:40:24.025Z,35.50
2023-02-06T00:42:51.180Z,38.85
2023-02-06T00:45:18.446Z,39.00
2023-02-06T00:47:45.729Z,48.83
2023-02-06T00:50:12.964Z,52.00
2023-02-06T00:52:40.309Z,42.38
2023-02-06T00:55:07.799Z,42.72
2023-02-06T00:57:35.116Z,32.70
2023-02-06T01:00:04.467Z,29.00
2023-02-06T01:02:31.896Z,36.20
2023-02-06T01:04:59.269Z,41.95
2023-02-06T01:07:26.964Z,47.05
2023-02-06T01:09:54.273Z,35.38
2023-02-06T01:12:21.758Z,38.83
2023-02-06T01:14:49.239Z,39.55
2023-02-06T01:17:16.615Z,43.83
2023-02-06T01:19:44.553Z,36.95
2023-02-06T01:22:11.796Z,40.55
2023-02-06T01:24:39.010Z,38.45
2023-02-06T01:27:06.416Z,29.88
2023-02-06T01:29:33.739Z,50.75
2023-02-06T01:32:01.070Z,38.70
2023-02-06T01:34:28.323Z,44.25
2023-02-06T01:36:55.700Z,39.85
2023-02-06T01:39:22.907Z,42.08
2023-02-06T01:41:51.111Z,32.85
2023-02-06T01:44:24.331Z,39.15
2023-02-06T01:46:54.951Z,41.28
2023-02-06T01:49:30.972Z,45.35
2023-02-06T01:52:31.173Z,48.85
2023-02-06T01:55:01.367Z,40.05
2023-02-06T01:57:29.500Z,41.13
2023-02-06T01:59:59.980Z,38.45
2023-02-06T02:02:30.024Z,46.38
2023-02-06T02:07:31.954Z,49.40
2023-02-06T02:09:59.615Z,41.83
2023-02-06T02:12:28.374Z,37.43
2023-02-06T02:14:57.069Z,42.20
2023-02-06T02:17:33.333Z,41.28
2023-02-06T02:20:15.883Z,41.35
2023-02-06T02:22:58.750Z,41.30
2023-02-06T02:26:02.993Z,45.05
2023-02-06T02:28:53.893Z,45.83
2023-02-06T02:31:39.089Z,43.97
2023-02-06T02:34:33.187Z,50.40
2023-02-06T02:37:11.031Z,45.28
2023-02-06T02:39:50.284Z,39.15
2023-02-06T02:42:27.929Z,44.72
2023-02-06T02:45:10.490Z,48.85
2023-02-06T02:48:07.704Z,43.35
2023-02-06T02:50:35.799Z,45.53
2023-02-06T02:53:05.118Z,49.88
2023-02-06T02:55:32.494Z,46.17
2023-02-06T03:00:37.273Z,55.03
2023-02-06T03:03:08.444Z,38.65
2023-02-06T03:05:37.538Z,44.40
2023-02-06T03:08:20.253Z,45.45
2023-02-06T03:11:09.627Z,44.17
2023-02-06T03:14:06.025Z,45.38
2023-02-06T03:16:37.647Z,52.03
2023-02-06T03:19:09.627Z,47.95
2023-02-06T03:21:40.004Z,43.35
2023-02-06T03:24:29.534Z,38.40
2023-02-06T03:26:59.659Z,42.30
2023-02-06T03:29:29.663Z,39.80
2023-02-06T03:32:06.298Z,49.15
2023-02-06T03:35:15.133Z,46.13
2023-02-06T03:37:42.834Z,40.17
2023-02-06T03:40:11.266Z,38.05
2023-02-06T03:42:41.423Z,38.50
2023-02-06T03:45:37.579Z,45.63
2023-02-06T03:48:29.935Z,52.95
2023-02-06T03:50:59.733Z,47.05
2023-02-06T03:53:27.385Z,39.88
2023-02-06T03:55:58.570Z,43.00
2023-02-06T03:58:26.190Z,37.65
2023-02-06T04:00:53.801Z,47.65
2023-02-06T04:03:21.530Z,36.53
2023-02-06T04:05:49.017Z,40.95
2023-02-06T04:08:16.614Z,44.90
2023-02-06T04:10:43.927Z,47.85
2023-02-06T04:13:11.234Z,42.80
2023-02-06T04:15:38.618Z,43.55
2023-02-06T04:18:06.239Z,36.17
2023-02-06T04:20:33.750Z,43.45
2023-02-06T04:23:00.962Z,44.95
2023-02-06T04:25:28.252Z,50.72
2023-02-06T04:27:55.576Z,37.78
2023-02-06T04:30:22.892Z,43.22
2023-02-06T04:32:50.215Z,48.20
2023-02-06T04:35:17.877Z,44.28
2023-02-06T04:37:45.144Z,47.58
2023-02-06T04:40:12.853Z,41.80
2023-02-06T04:42:43.631Z,41.20
2023-02-06T04:45:10.918Z,42.75
2023-02-06T04:47:38.682Z,42.53
2023-02-06T04:50:06.321Z,33.83
2023-02-06T04:52:33.511Z,32.45
2023-02-06T04:55:00.758Z,41.80
2023-02-06T04:57:28.131Z,38.45
2023-02-06T04:59:55.347Z,45.13
2023-02-06T05:02:22.670Z,37.15
2023-02-06T05:04:51.907Z,37.17
2023-02-06T05:07:19.765Z,41.00
2023-02-06T05:09:47.280Z,43.90
2023-02-06T05:12:14.547Z,49.92
2023-02-06T05:14:41.822Z,49.72
2023-02-06T05:17:09.197Z,40.22
2023-02-06T05:19:36.643Z,45.10
2023-02-06T05:22:04.113Z,45.35
2023-02-06T05:24:31.449Z,46.20
2023-02-06T05:26:58.819Z,48.20
2023-02-06T05:29:26.151Z,40.15
2023-02-06T05:31:54.092Z,43.72
2023-02-06T05:34:21.314Z,34.15
2023-02-06T05:36:48.593Z,40.45
2023-02-06T05:39:15.840Z,41.10
2023-02-06T05:41:43.060Z,41.80
2023-02-06T05:44:11.048Z,46.42
2023-02-06T05:46:38.403Z,50.92
2023-02-06T05:49:05.947Z,52.22
2023-02-06T05:51:33.244Z,49.83
2023-02-06T05:54:00.605Z,47.53
2023-02-06T05:56:27.865Z,38.10
2023-02-06T05:58:55.185Z,45.05
2023-02-06T06:01:22.477Z,40.15
2023-02-06T06:03:49.946Z,42.67
2023-02-06T06:06:17.362Z,40.40
2023-02-06T06:08:44.651Z,47.47
2023-02-06T06:11:12.813Z,42.30
2023-02-06T06:13:40.796Z,41.22
2023-02-06T06:16:08.273Z,35.60
2023-02-06T06:18:35.826Z,42.78
2023-02-06T06:21:05.499Z,41.88
2023-02-06T06:23:33.074Z,41.08
2023-02-06T06:26:00.421Z,38.40
2023-02-06T06:28:27.782Z,53.47
2023-02-06T06:31:03.010Z,43.50
2023-02-06T06:33:30.417Z,31.15
2023-02-06T06:35:58.421Z,52.80
2023-02-06T06:38:27.550Z,41.15
2023-02-06T06:40:54.829Z,47.00
2023-02-06T06:43:22.305Z,39.90
2023-02-06T06:45:49.518Z,47.90
2023-02-06T06:48:16.830Z,44.92
2023-02-06T06:50:44.262Z,38.08
2023-02-06T06:53:11.559Z,37.65
2023-02-06T06:55:38.810Z,48.60
2023-02-06T06:58:06.077Z,33.72
2023-02-06T07:00:33.455Z,40.30
2023-02-06T07:03:00.768Z,53.40
2023-02-06T07:05:28.112Z,43.42
2023-02-06T07:07:55.392Z,36.45
2023-02-06T07:10:22.735Z,36.67
2023-02-06T07:12:53.707Z,43.65
2023-02-06T07:15:20.960Z,32.97
2023-02-06T07:17:48.186Z,34.03
2023-02-06T07:20:15.942Z,43.80
2023-02-06T07:22:43.325Z,44.65
2023-02-06T07:25:10.646Z,34.17
2023-02-06T07:27:37.878Z,37.70
2023-02-06T07:30:06.611Z,33.00
2023-02-06T07:32:37.018Z,39.45
2023-02-06T07:35:05.240Z,30.17
2023-02-06T07:37:32.828Z,49.70
2023-02-06T07:40:00.132Z,49.90
2023-02-06T07:42:27.738Z,42.78
2023-02-06T07:45:00.318Z,42.53
2023-02-06T07:47:27.489Z,40.55
2023-02-06T07:49:54.786Z,33.55
2023-02-06T07:52:22.413Z,44.50
2023-02-06T07:54:49.673Z,45.33
2023-02-06T07:57:17.401Z,47.72
2023-02-06T07:59:44.743Z,43.78
2023-02-06T08:02:12.623Z,45.25
2023-02-06T08:04:40.113Z,39.35
2023-02-06T08:07:09.865Z,48.45
2023-02-06T08:09:37.139Z,55.58
2023-02-06T08:12:04.521Z,45.15
2023-02-06T08:14:32.693Z,35.35
2023-02-06T08:17:00.334Z,45.47
2023-02-06T08:19:27.545Z,40.80
2023-02-06T08:21:54.885Z,51.85
2023-02-06T08:24:22.133Z,43.40
2023-02-06T08:26:49.651Z,58.47
2023-02-06T08:29:17.059Z,44.13
2023-02-06T08:31:44.411Z,50.95
2023-02-06T08:34:13.969Z,46.88
2023-02-06T08:36:43.452Z,35.95
2023-02-06T08:39:13.576Z,36.75
2023-02-06T08:41:42.468Z,42.70
2023-02-06T08:44:13.363Z,44.05
2023-02-06T08:46:40.803Z,44.97
2023-02-06T08:49:12.561Z,37.65
2023-02-06T08:51:39.998Z,48.58
2023-02-06T08:54:10.846Z,38.08
2023-02-06T08:56:38.795Z,38.15
2023-02-06T08:59:07.506Z,39.42
2023-02-06T09:01:36.298Z,38.35
2023-02-06T09:04:06.631Z,45.80
2023-02-06T09:06:40.594Z,40.00
2023-02-06T09:09:09.845Z,32.85
2023-02-06T09:11:37.702Z,43.30
2023-02-06T09:14:06.241Z,36.40
2023-02-06T09:16:34.511Z,37.30
2023-02-06T09:19:02.797Z,43.45
2023-02-06T09:21:32.595Z,33.10
2023-02-06T09:26:31.167Z,33.15
2023-02-06T09:29:00.422Z,41.00
2023-02-06T09:31:32.837Z,37.38
2023-02-06T09:34:01.246Z,40.25
2023-02-06T09:36:30.309Z,50.60
2023-02-06T09:38:59.595Z,47.30
2023-02-06T09:41:26.844Z,48.73
2023-02-06T09:44:07.015Z,43.25
2023-02-06T09:46:36.544Z,42.97
2023-02-06T09:49:12.038Z,46.88
2023-02-06T09:52:11.242Z,37.03
2023-02-06T09:54:44.637Z,55.25
2023-02-06T09:57:21.931Z,38.63
2023-02-06T09:59:54.027Z,45.50
2023-02-06T10:02:30.451Z,43.75
2023-02-06T10:05:32.065Z,35.83
2023-02-06T10:08:08.836Z,36.70
2023-02-06T10:10:44.014Z,36.50
2023-02-06T10:13:24.166Z,40.15
2023-02-06T10:15:55.337Z,35.65
2023-02-06T10:18:32.877Z,35.95
2023-02-06T10:21:12.837Z,36.15
2023-02-06T10:23:47.480Z,34.72
2023-02-06T10:26:19.118Z,36.35
2023-02-06T10:28:52.319Z,34.97
2023-02-06T10:31:33.386Z,34.83
2023-02-06T10:34:20.596Z,35.20
2023-02-06T10:36:57.078Z,31.70
2023-02-06T10:39:30.892Z,55.90
2023-02-06T10:42:10.678Z,35.83
2023-02-06T10:44:51.282Z,30.88
2023-02-06T10:47:54.337Z,35.42
2023-02-06T10:50:30.153Z,49.33
2023-02-06T10:53:01.310Z,32.97
2023-02-06T10:55:42.200Z,34.17
2023-02-06T10:58:29.317Z,35.80
2023-02-06T11:00:58.599Z,28.60
2023-02-06T11:03:30.642Z,47.60
2023-02-06T11:05:59.483Z,33.45
2023-02-06T11:08:34.663Z,41.42
2023-02-06T11:11:32.398Z,39.85
2023-02-06T11:14:25.237Z,27.55
2023-02-06T11:16:53.468Z,34.05
2023-02-06T11:19:34.091Z,27.02
2023-02-06T11:22:04.632Z,41.33
2023-02-06T11:24:32.092Z,37.30
2023-02-06T11:27:02.251Z,36.15
2023-02-06T11:29:37.305Z,31.17
2023-02-06T11:32:06.749Z,33.92
2023-02-06T11:34:52.461Z,42.45
2023-02-06T11:37:37.920Z,37.08
2023-02-06T11:40:18.910Z,30.85
2023-02-06T11:42:48.191Z,34.83
2023-02-06T11:45:30.844Z,35.13
2023-02-06T11:47:58.822Z,32.85
2023-02-06T11:50:30.308Z,32.90
2023-02-06T11:53:19.452Z,29.83
2023-02-06T11:56:13.845Z,24.57
2023-02-06T11:58:41.136Z,25.33
2023-02-06T12:01:19.175Z,33.20
2023-02-06T12:03:58.432Z,34.30
2023-02-06T12:06:43.879Z,38.42
2023-02-06T12:09:13.653Z,31.90
2023-02-06T12:11:53.047Z,35.42
2023-02-06T12:14:33.433Z,25.67
2023-02-06T12:17:03.114Z,29.13
2023-02-06T12:19:47.273Z,27.67
2023-02-06T12:22:18.972Z,28.30
2023-02-06T12:24:48.975Z,30.38
2023-02-06T12:27:39.244Z,32.08
2023-02-06T12:30:26.531Z,32.10
2023-02-06T12:33:04.107Z,30.77
2023-02-06T12:35:43.769Z,29.60
2023-02-06T12:38:44.012Z,34.45
2023-02-06T12:41:28.985Z,29.02
2023-02-06T12:44:33.806Z,33.78
2023-02-06T12:47:14.432Z,29.98
2023-02-06T12:49:55.193Z,36.55
2023-02-06T12:52:31.810Z,33.05
2023-02-06T12:55:35.564Z,29.10
2023-02-06T12:58:04.642Z,29.55
2023-02-06T13:00:54.040Z,33.58
2023-02-06T13:03:28.867Z,25.98
2023-02-06T13:06:03.002Z,31.73
2023-02-06T13:08:47.103Z,30.08
2023-02-06T13:11:32.529Z,28.02
2023-02-06T13:14:02.450Z,38.10
2023-02-06T13:16:42.528Z,28.25
2023-02-06T13:19:32.365Z,40.95
2023-02-06T13:22:13.472Z,20.70
2023-02-06T13:24:42.037Z,27.70
2023-02-06T13:27:09.348Z,25.10
2023-02-06T13:29:38.902Z,25.10
2023-02-06T13:32:12.498Z,29.95
2023-02-06T13:34:44.189Z,28.30
2023-02-06T13:37:38.058Z,24.85
2023-02-06T13:40:23.851Z,20.75
2023-02-06T13:42:56.918Z,21.10
2023-02-06T13:45:29.000Z,28.45
2023-02-06T13:48:08.745Z,27.67
2023-02-06T13:51:14.078Z,23.90
2023-02-06T13:54:19.179Z,23.65
2023-02-06T13:56:46.801Z,24.08
2023-02-06T13:59:19.142Z,18.63
2023-02-06T14:01:46.840Z,26.80
2023-02-06T14:04:20.041Z,27.63
2023-02-06T14:07:23.024Z,25.38
2023-02-06T14:10:38.465Z,21.92
2023-02-06T14:13:45.088Z,18.38
2023-02-06T14:16:33.667Z,27.85
2023-02-06T14:19:22.662Z,22.90
2023-02-06T14:22:08.275Z,22.02
2023-02-06T14:25:07.225Z,24.58
2023-02-06T14:27:44.780Z,18.95
2023-02-06T14:30:49.009Z,22.80
2023-02-06T14:33:31.318Z,20.60
2023-02-06T14:36:23.836Z,24.98
2023-02-06T14:39:40.900Z,17.58
2023-02-06T14:42:32.794Z,22.65
2023-02-06T14:45:04.696Z,23.60
2023-02-06T14:47:51.311Z,19.58
2023-02-06T14:50:23.301Z,21.10
2023-02-06T14:52:58.928Z,20.77
2023-02-06T14:55:35.697Z,18.27
2023-02-06T14:58:13.101Z,21.70
2023-02-06T15:00:40.598Z,20.30
2023-02-06T15:03:15.368Z,19.17
2023-02-06T15:05:43.974Z,19.70
2023-02-06T15:08:19.547Z,13.52
2023-02-06T15:10:47.504Z,21.05
2023-02-06T15:13:23.273Z,19.80
2023-02-06T15:15:56.647Z,14.15
2023-02-06T15:18:24.392Z,14.73
2023-02-06T15:20:58.568Z,10.23
2023-02-06T15:23:53.571Z,11.70
2023-02-06T15:26:32.100Z,13.25
2023-02-06T15:29:01.859Z,14.48
2023-02-06T15:31:29.479Z,15.05
2023-02-06T15:34:00.742Z,24.00
2023-02-06T15:36:33.837Z,20.33
2023-02-06T15:39:02.021Z,14.20
2023-02-06T15:41:31.260Z,16.98
2023-02-06T15:44:04.572Z,19.83
2023-02-06T15:46:32.018Z,15.43
2023-02-06T15:48:59.597Z,18.25
2023-02-06T15:51:29.502Z,18.20
2023-02-06T15:54:15.533Z,21.17
2023-02-06T15:56:43.601Z,20.40
2023-02-06T15:59:24.127Z,16.13
2023-02-06T16:01:52.925Z,16.92
2023-02-06T16:04:28.461Z,13.45
2023-02-06T16:07:10.603Z,15.60
2023-02-06T16:09:44.942Z,19.45
2023-02-06T16:12:13.356Z,13.02
2023-02-06T16:14:41.953Z,13.70
2023-02-06T16:17:15.450Z,16.15
2023-02-06T16:19:48.472Z,14.27
2023-02-06T16:22:24.595Z,9.98
2023-02-06T16:24:55.002Z,14.35
2023-02-06T16:27:27.909Z,14.07
2023-02-06T16:29:56.657Z,12.00
2023-02-06T16:32:25.138Z,12.82
2023-02-06T16:34:52.778Z,16.33
2023-02-06T16:37:25.861Z,18.80
2023-02-06T16:39:53.783Z,16.73
2023-02-06T16:42:23.721Z,14.95
2023-02-06T16:44:53.425Z,12.60
2023-02-06T16:47:21.573Z,17.52
2023-02-06T16:49:49.612Z,17.48
2023-02-06T16:52:22.482Z,14.90
2023-02-06T16:54:49.997Z,15.38
2023-02-06T16:57:29.332Z,17.38
2023-02-06T16:59:56.933Z,20.33
2023-02-06T17:02:25.901Z,14.82
2023-02-06T17:04:53.317Z,16.05
2023-02-06T17:07:25.287Z,14.63
2023-02-06T17:09:54.406Z,16.40
2023-02-06T17:12:22.597Z,14.60
2023-02-06T17:14:49.921Z,14.05
2023-02-06T17:17:20.216Z,12.35
2023-02-06T17:19:48.565Z,11.95
2023-02-06T17:22:16.117Z,19.95
2023-02-06T17:24:43.968Z,11.48
2023-02-06T17:27:17.976Z,20.17
2023-02-06T17:29:47.465Z,14.73
2023-02-06T17:32:16.304Z,20.58
2023-02-06T17:34:43.592Z,19.65
2023-02-06T17:37:20.581Z,15.65
2023-02-06T17:39:52.109Z,23.33
2023-02-06T17:42:19.623Z,14.82
2023-02-06T17:44:46.841Z,20.13
2023-02-06T17:47:14.088Z,17.95
2023-02-06T17:49:41.329Z,15.98
2023-02-06T17:52:08.545Z,15.20
2023-02-06T17:54:35.856Z,20.20
2023-02-06T17:57:03.310Z,15.13
2023-02-06T17:59:30.693Z,20.40
2023-02-06T18:01:59.373Z,22.30
2023-02-06T18:04:27.831Z,20.70
2023-02-06T18:06:55.078Z,18.88
2023-02-06T18:09:22.302Z,18.17
2023-02-06T18:11:49.769Z,17.77
2023-02-06T18:14:17.072Z,23.45
2023-02-06T18:16:45.575Z,19.67
2023-02-06T18:19:13.201Z,16.10
2023-02-06T18:21:40.435Z,20.98
2023-02-06T18:24:08.022Z,20.88
2023-02-06T18:26:35.572Z,20.13
2023-02-06T18:29:05.117Z,18.98
2023-02-06T18:31:34.008Z,18.98
2023-02-06T18:34:03.374Z,18.20
2023-02-06T18:36:30.776Z,17.70
2023-02-06T18:38:58.103Z,14.75
2023-02-06T18:41:44.045Z,21.30
2023-02-06T18:44:12.004Z,17.75
2023-02-06T18:46:39.559Z,20.33
2023-02-06T18:49:06.988Z,17.77
2023-02-06T18:51:34.262Z,17.38
2023-02-06T18:54:01.609Z,20.25
2023-02-06T18:56:29.082Z,18.67
2023-02-06T18:58:56.363Z,14.95
2023-02-06T19:01:24.667Z,21.77
2023-02-06T19:03:53.298Z,20.38
2023-02-06T19:06:28.921Z,20.42
2023-02-06T19:08:56.941Z,18.02
2023-02-06T19:11:24.503Z,20.17
2023-02-06T19:13:51.855Z,18.77
2023-02-06T19:16:20.252Z,20.77
2023-02-06T19:18:48.911Z,19.98
2023-02-06T19:21:18.932Z,19.23
2023-02-06T19:26:15.809Z,21.45
2023-02-06T19:28:43.787Z,21.90
2023-02-06T19:31:12.499Z,21.42
2023-02-06T19:33:41.303Z,23.58
2023-02-06T19:36:16.077Z,23.83
2023-02-06T19:38:44.236Z,22.30
2023-02-06T19:41:18.996Z,27.55
2023-02-06T19:43:47.334Z,22.70
2023-02-06T19:46:16.121Z,19.80
2023-02-06T19:48:45.543Z,25.90
2023-02-06T19:51:15.330Z,24.20
2023-02-06T19:53:45.765Z,25.63
2023-02-06T19:56:26.185Z,22.42
2023-02-06T19:58:57.302Z,20.05
2023-02-06T20:01:25.090Z,22.63
2023-02-06T20:03:53.042Z,22.60
2023-02-06T20:06:20.344Z,23.63
2023-02-06T20:08:47.932Z,28.90
2023-02-06T20:11:18.580Z,24.45
2023-02-06T20:13:47.346Z,23.08
2023-02-06T20:16:17.342Z,26.60
2023-02-06T20:18:45.200Z,20.83
2023-02-06T20:21:27.922Z,25.63
2023-02-06T20:23:58.118Z,21.55
2023-02-06T20:26:27.764Z,25.90
2023-02-06T20:28:55.264Z,22.08
2023-02-06T20:31:23.070Z,20.77
2023-02-06T20:33:50.457Z,18.30
2023-02-06T20:36:24.277Z,24.25
2023-02-06T20:38:53.877Z,21.38
2023-02-06T20:41:23.287Z,25.25
2023-02-06T20:43:50.744Z,22.85
2023-02-06T20:46:18.147Z,23.30
2023-02-06T20:48:46.964Z,27.80
2023-02-06T20:51:14.786Z,25.55
2023-02-06T20:53:42.109Z,20.77
2023-02-06T20:56:14.546Z,21.02
2023-02-06T20:58:43.024Z,24.42
2023-02-06T21:01:19.590Z,24.70
2023-02-06T21:03:47.228Z,29.33
2023-02-06T21:06:15.197Z,26.10
2023-02-06T21:08:42.900Z,21.08
2023-02-06T21:11:10.289Z,25.10
2023-02-06T21:13:40.033Z,25.38
2023-02-06T21:16:08.516Z,23.83
2023-02-06T21:18:36.355Z,21.45
2023-02-06T21:21:09.533Z,27.73
2023-02-06T21:23:41.894Z,31.27
2023-02-06T21:26:10.551Z,25.50
2023-02-06T21:28:38.548Z,22.33
2023-02-06T21:31:09.945Z,23.38
2023-02-06T21:33:37.782Z,20.48
2023-02-06T21:36:07.664Z,22.15
2023-02-06T21:38:36.140Z,21.20
2023-02-06T21:41:12.103Z,26.58
2023-02-06T21:43:39.556Z,26.83
2023-02-06T21:46:07.068Z,27.30
2023-02-06T21:48:35.304Z,23.23
2023-02-06T21:51:16.696Z,26.92
2023-02-06T21:53:45.379Z,27.27
2023-02-06T21:56:18.337Z,20.98
2023-02-06T21:58:46.226Z,20.92
2023-02-06T22:01:26.359Z,22.10
2023-02-06T22:03:54.461Z,25.83
2023-02-06T22:06:21.785Z,27.40
2023-02-06T22:08:54.181Z,35.13
2023-02-06T22:11:24.166Z,20.27
2023-02-06T22:13:52.113Z,24.58
2023-02-06T22:16:27.384Z,26.25
2023-02-06T22:18:55.742Z,23.92
2023-02-06T22:21:26.356Z,23.08
2023-02-06T22:23:56.425Z,25.38
2023-02-06T22:28:51.239Z,23.70
2023-02-06T22:31:23.802Z,24.45
2023-02-06T22:33:51.733Z,20.95
2023-02-06T22:36:23.247Z,23.60
2023-02-06T22:38:56.144Z,27.02
2023-02-06T22:41:23.483Z,23.25
2023-02-06T22:43:51.704Z,27.13
2023-02-06T22:46:34.011Z,30.67
2023-02-06T22:49:01.694Z,27.88
2023-02-06T22:51:29.136Z,21.13
2023-02-06T22:53:56.645Z,26.83
2023-02-06T22:56:27.130Z,26.23
2023-02-06T22:58:56.585Z,25.35
2023-02-06T23:01:25.571Z,27.90
2023-02-06T23:03:54.156Z,28.10
2023-02-06T23:06:21.731Z,26.13
2023-02-06T23:08:49.239Z,25.95
2023-02-06T23:11:16.784Z,34.42
2023-02-06T23:13:44.052Z,23.38
2023-02-06T23:16:12.001Z,35.33
2023-02-06T23:18:39.346Z,26.80
2023-02-06T23:21:11.945Z,27.00
2023-02-06T23:23:39.947Z,28.77
2023-02-06T23:26:10.296Z,26.90
2023-02-06T23:28:38.227Z,28.15
2023-02-06T23:31:06.182Z,28.60
2023-02-06T23:33:33.858Z,23.90
2023-02-06T23:36:10.845Z,27.20
2023-02-06T23:38:39.073Z,20.75
2023-02-06T23:41:11.088Z,23.48
2023-02-06T23:43:39.270Z,23.15
2023-02-06T23:46:10.350Z,28.33
2023-02-06T23:48:39.710Z,22.13
2023-02-06T23:51:07.513Z,28.77
2023-02-06T23:53:34.997Z,22.73
2023-02-06T23:56:08.892Z,21.13
2023-02-06T23:58:36.165Z,25.17
